createdAt,value
2022-08-24T00:02:19.658Z,3.92
2022-08-24T00:04:52.785Z,4.65
2022-08-24T00:07:27.412Z,4.22
2022-08-24T00:09:58.343Z,4.00
2022-08-24T00:12:28.635Z,4.10
2022-08-24T00:14:59.334Z,4.50
2022-08-24T00:17:29.667Z,4.25
2022-08-24T00:20:02.869Z,4.35
2022-08-24T00:22:33.223Z,4.38
2022-08-24T00:25:03.649Z,4.45
2022-08-24T00:27:34.177Z,4.82
2022-08-24T00:30:04.876Z,4.80
2022-08-24T00:32:36.012Z,4.45
2022-08-24T00:35:10.845Z,4.30
2022-08-24T00:37:42.266Z,5.40
2022-08-24T00:40:18.554Z,4.72
2022-08-24T00:42:49.365Z,4.97
2022-08-24T00:45:22.268Z,4.40
2022-08-24T00:48:02.460Z,4.72
2022-08-24T00:50:41.050Z,4.60
2022-08-24T00:53:16.815Z,4.70
2022-08-24T00:55:52.497Z,4.97
2022-08-24T00:58:29.067Z,4.45
2022-08-24T01:01:05.935Z,5.13
2022-08-24T01:03:37.895Z,4.50
2022-08-24T01:06:12.681Z,4.75
2022-08-24T01:08:44.682Z,4.57
2022-08-24T01:11:18.664Z,4.80
2022-08-24T01:13:52.404Z,4.80
2022-08-24T01:16:36.656Z,4.57
2022-08-24T01:19:11.233Z,4.68
2022-08-24T01:24:22.889Z,4.90
2022-08-24T01:26:54.645Z,4.90
2022-08-24T01:29:29.278Z,4.75
2022-08-24T01:32:01.909Z,4.53
2022-08-24T01:34:32.165Z,5.25
2022-08-24T01:37:02.815Z,5.05
2022-08-24T01:39:40.388Z,5.85
2022-08-24T01:42:11.506Z,5.55
2022-08-24T01:44:45.676Z,6.30
2022-08-24T01:47:18.883Z,7.43
2022-08-24T01:49:52.001Z,6.53
2022-08-24T01:52:38.856Z,8.07
2022-08-24T01:55:22.804Z,8.20
2022-08-24T01:57:53.235Z,8.15
2022-08-24T02:00:24.229Z,7.53
2022-08-24T02:02:56.700Z,8.52
2022-08-24T02:05:27.851Z,9.38
2022-08-24T02:07:59.093Z,9.45
2022-08-24T02:10:32.689Z,8.73
2022-08-24T02:13:03.045Z,9.63
2022-08-24T02:15:38.873Z,7.70
2022-08-24T02:18:15.029Z,8.07
2022-08-24T02:20:46.369Z,10.10
2022-08-24T02:23:16.770Z,8.88
2022-08-24T02:25:49.904Z,10.57
2022-08-24T02:28:20.406Z,9.93
2022-08-24T02:30:51.320Z,10.68
2022-08-24T02:33:23.750Z,10.15
2022-08-24T02:35:55.298Z,11.23
2022-08-24T02:38:25.626Z,11.02
2022-08-24T02:40:58.428Z,10.57
2022-08-24T02:43:28.916Z,11.13
2022-08-24T02:46:00.896Z,9.85
2022-08-24T02:48:31.325Z,10.55
2022-08-24T02:51:01.572Z,9.85
2022-08-24T02:53:31.958Z,11.25
2022-08-24T02:56:04.817Z,10.20
2022-08-24T02:58:35.099Z,8.75
2022-08-24T03:01:05.362Z,9.63
2022-08-24T03:03:49.021Z,10.88
2022-08-24T03:06:19.329Z,9.65
2022-08-24T03:08:56.185Z,9.60
2022-08-24T03:11:31.045Z,9.30
2022-08-24T03:14:02.123Z,9.20
2022-08-24T03:16:34.123Z,9.40
2022-08-24T03:19:04.560Z,10.10
2022-08-24T03:21:35.458Z,8.65
2022-08-24T03:24:07.369Z,10.15
2022-08-24T03:26:44.029Z,8.98
2022-08-24T03:29:15.910Z,9.45
2022-08-24T03:31:46.625Z,9.57
2022-08-24T03:34:20.592Z,8.98
2022-08-24T03:36:52.974Z,9.25
2022-08-24T03:39:23.114Z,9.32
2022-08-24T03:41:56.864Z,9.32
2022-08-24T03:44:28.341Z,8.80
2022-08-24T03:46:59.460Z,9.15
2022-08-24T03:49:29.838Z,9.00
2022-08-24T03:52:00.561Z,8.95
2022-08-24T03:54:31.446Z,8.48
2022-08-24T03:57:04.569Z,9.00
2022-08-24T03:59:34.874Z,8.80
2022-08-24T04:02:12.592Z,8.50
2022-08-24T04:04:45.114Z,8.43
2022-08-24T04:07:15.490Z,10.75
2022-08-24T04:09:45.812Z,8.13
2022-08-24T04:12:18.697Z,8.20
2022-08-24T04:14:56.039Z,8.20
2022-08-24T04:17:26.361Z,8.27
2022-08-24T04:20:03.123Z,8.10
2022-08-24T04:22:36.578Z,7.53
2022-08-24T04:25:09.385Z,7.55
2022-08-24T04:27:43.871Z,8.50
2022-08-24T04:30:16.976Z,9.30
2022-08-24T04:32:47.277Z,8.60
2022-08-24T04:35:17.503Z,9.13
2022-08-24T04:37:47.706Z,9.55
2022-08-24T04:40:19.494Z,8.85
2022-08-24T04:42:52.803Z,10.20
2022-08-24T04:45:23.347Z,9.27
2022-08-24T04:47:53.751Z,8.60
2022-08-24T04:50:24.928Z,8.40
2022-08-24T04:52:55.623Z,9.15
2022-08-24T04:55:25.906Z,9.25
2022-08-24T04:57:58.936Z,9.45
2022-08-24T05:00:29.439Z,9.90
2022-08-24T05:03:00.207Z,9.55
2022-08-24T05:05:30.681Z,8.32
2022-08-24T05:08:01.000Z,9.50
2022-08-24T05:10:33.559Z,9.15
2022-08-24T05:13:07.141Z,9.60
2022-08-24T05:15:38.632Z,9.55
2022-08-24T05:18:09.125Z,8.85
2022-08-24T05:20:42.828Z,10.43
2022-08-24T05:23:13.173Z,9.97
2022-08-24T05:25:45.093Z,10.48
2022-08-24T05:28:17.912Z,9.65
2022-08-24T05:30:48.152Z,10.45
2022-08-24T05:33:21.517Z,9.60
2022-08-24T05:35:51.785Z,9.80
2022-08-24T05:38:22.061Z,10.32
2022-08-24T05:40:52.320Z,10.77
2022-08-24T05:43:25.312Z,9.73
2022-08-24T05:45:55.515Z,11.25
2022-08-24T05:48:26.320Z,9.73
2022-08-24T05:50:58.311Z,10.45
2022-08-24T05:53:28.812Z,11.52
2022-08-24T05:56:02.140Z,9.98
2022-08-24T05:58:35.183Z,10.18
2022-08-24T06:01:10.506Z,10.60
2022-08-24T06:03:41.661Z,11.88
2022-08-24T06:06:13.652Z,11.70
2022-08-24T06:08:47.333Z,11.68
2022-08-24T06:11:30.050Z,11.97
2022-08-24T06:14:09.050Z,11.45
2022-08-24T06:16:45.304Z,11.57
2022-08-24T06:19:20.389Z,12.57
2022-08-24T06:21:54.695Z,11.75
2022-08-24T06:24:47.201Z,12.07
2022-08-24T06:27:22.966Z,12.70
2022-08-24T06:29:59.910Z,13.07
2022-08-24T06:32:31.554Z,11.98
2022-08-24T06:35:02.164Z,12.55
2022-08-24T06:37:33.126Z,11.00
2022-08-24T06:40:03.980Z,11.48
2022-08-24T06:42:34.471Z,12.23
2022-08-24T06:45:08.314Z,13.60
2022-08-24T06:47:38.607Z,11.55
2022-08-24T06:50:11.199Z,12.73
2022-08-24T06:52:41.557Z,11.57
2022-08-24T06:55:14.696Z,11.60
2022-08-24T06:57:48.055Z,11.18
2022-08-24T07:00:25.614Z,12.15
2022-08-24T07:02:55.900Z,12.02
2022-08-24T07:05:26.277Z,12.35
2022-08-24T07:07:57.943Z,12.23
2022-08-24T07:10:30.089Z,12.75
2022-08-24T07:13:00.820Z,11.88
2022-08-24T07:15:34.486Z,12.93
2022-08-24T07:18:04.977Z,12.63
2022-08-24T07:20:35.342Z,12.45
2022-08-24T07:23:05.766Z,12.63
2022-08-24T07:25:36.925Z,12.13
2022-08-24T07:28:10.091Z,11.65
2022-08-24T07:30:45.736Z,11.20
2022-08-24T07:33:16.561Z,11.45
2022-08-24T07:35:47.355Z,10.75
2022-08-24T07:38:17.500Z,11.48
2022-08-24T07:41:09.729Z,12.75
2022-08-24T07:43:42.962Z,11.35
2022-08-24T07:46:16.390Z,12.00
2022-08-24T07:48:48.474Z,12.68
2022-08-24T07:51:22.462Z,11.80
2022-08-24T07:53:54.139Z,12.82
2022-08-24T07:56:24.588Z,13.82
2022-08-24T07:58:54.873Z,12.90
2022-08-24T08:01:27.858Z,13.90
2022-08-24T08:03:58.129Z,12.63
2022-08-24T08:06:28.368Z,11.40
2022-08-24T08:08:58.638Z,12.48
2022-08-24T08:11:28.884Z,10.90
2022-08-24T08:13:59.132Z,12.70
2022-08-24T08:16:32.162Z,10.75
2022-08-24T08:19:10.493Z,13.07
2022-08-24T08:21:58.617Z,12.00
2022-08-24T08:24:28.956Z,11.45
2022-08-24T08:27:01.001Z,12.88
2022-08-24T08:29:34.481Z,11.80
2022-08-24T08:32:07.837Z,12.25
2022-08-24T08:34:38.044Z,11.77
2022-08-24T08:37:08.888Z,11.23
2022-08-24T08:39:40.675Z,11.57
2022-08-24T08:42:50.248Z,12.35
2022-08-24T08:45:44.413Z,12.50
2022-08-24T08:48:53.406Z,13.38
2022-08-24T08:52:14.060Z,12.18
2022-08-24T08:55:07.886Z,12.38
2022-08-24T08:57:58.227Z,12.82
2022-08-24T09:00:35.269Z,11.82
2022-08-24T09:03:40.146Z,12.25
2022-08-24T09:06:38.415Z,12.00
2022-08-24T09:09:34.986Z,11.50
2022-08-24T09:12:20.734Z,12.10
2022-08-24T09:15:28.857Z,12.68
2022-08-24T09:18:15.048Z,11.50
2022-08-24T09:21:05.941Z,13.20
2022-08-24T09:23:46.535Z,12.70
2022-08-24T09:26:29.292Z,11.80
2022-08-24T09:29:13.692Z,11.05
2022-08-24T09:32:20.886Z,11.88
2022-08-24T09:34:57.949Z,11.60
2022-08-24T09:37:43.903Z,11.45
2022-08-24T09:40:41.321Z,11.77
2022-08-24T09:44:08.556Z,11.95
2022-08-24T09:47:42.714Z,11.75
2022-08-24T09:50:51.713Z,11.82
2022-08-24T09:54:14.303Z,10.77
2022-08-24T09:57:14.206Z,10.55
2022-08-24T10:00:14.348Z,10.88
2022-08-24T10:03:02.031Z,11.40
2022-08-24T10:05:52.784Z,10.70
2022-08-24T10:08:36.964Z,10.60
2022-08-24T10:11:19.732Z,10.68
2022-08-24T10:13:59.301Z,10.57
2022-08-24T10:16:51.658Z,10.93
2022-08-24T10:19:51.947Z,10.43
2022-08-24T10:22:44.980Z,10.85
2022-08-24T10:25:34.369Z,9.90
2022-08-24T10:28:27.872Z,9.82
2022-08-24T10:31:12.930Z,9.57
2022-08-24T10:34:04.488Z,8.70
2022-08-24T10:37:04.941Z,8.80
2022-08-24T10:40:14.029Z,9.00
2022-08-24T10:43:28.336Z,9.13
2022-08-24T10:46:28.562Z,9.55
2022-08-24T10:49:49.417Z,9.40
2022-08-24T10:52:52.172Z,9.95
2022-08-24T10:55:27.928Z,9.93
2022-08-24T10:58:29.675Z,9.77
2022-08-24T11:01:19.545Z,9.75
2022-08-24T11:04:05.260Z,9.18
2022-08-24T11:06:39.001Z,8.52
2022-08-24T11:09:19.169Z,9.60
2022-08-24T11:11:53.089Z,8.38
2022-08-24T11:14:32.385Z,8.48
2022-08-24T11:17:21.272Z,9.45
2022-08-24T11:19:53.143Z,8.70
2022-08-24T11:22:44.337Z,9.13
2022-08-24T11:25:22.384Z,9.07
2022-08-24T11:27:55.898Z,8.75
2022-08-24T11:30:32.389Z,8.77
2022-08-24T11:33:06.363Z,9.30
2022-08-24T11:35:41.698Z,8.43
2022-08-24T11:38:20.192Z,6.45
2022-08-24T11:40:56.820Z,7.35
2022-08-24T11:43:40.980Z,6.78
2022-08-24T11:46:22.701Z,6.30
2022-08-24T11:49:05.552Z,7.07
2022-08-24T11:51:46.581Z,6.70
2022-08-24T11:54:28.345Z,6.68
2022-08-24T11:57:12.486Z,7.03
2022-08-24T11:59:56.201Z,5.85
2022-08-24T12:02:37.338Z,6.15
2022-08-24T12:05:25.712Z,6.15
2022-08-24T12:08:08.895Z,6.30
2022-08-24T12:10:49.474Z,6.25
2022-08-24T12:13:35.576Z,6.68
2022-08-24T12:16:13.330Z,6.15
2022-08-24T12:19:02.671Z,6.85
2022-08-24T12:21:36.036Z,7.25
2022-08-24T12:24:10.969Z,6.70
2022-08-24T12:26:45.958Z,7.15
2022-08-24T12:29:23.159Z,7.43
2022-08-24T12:31:58.848Z,7.80
2022-08-24T12:34:40.520Z,7.20
2022-08-24T12:37:17.557Z,6.60
2022-08-24T12:39:53.968Z,6.80
2022-08-24T12:42:28.811Z,7.50
2022-08-24T12:45:06.869Z,7.53
2022-08-24T12:47:47.906Z,7.65
2022-08-24T12:50:31.364Z,7.10
2022-08-24T12:53:40.413Z,7.03
2022-08-24T12:57:02.557Z,6.40
2022-08-24T12:59:38.389Z,5.95
2022-08-24T13:02:28.886Z,5.55
2022-08-24T13:05:03.356Z,5.78
2022-08-24T13:07:45.352Z,6.10
2022-08-24T13:10:38.384Z,5.82
2022-08-24T13:13:23.452Z,5.78
2022-08-24T13:16:04.109Z,6.28
2022-08-24T13:19:16.105Z,4.65
2022-08-24T13:21:59.998Z,5.30
2022-08-24T13:24:59.074Z,4.70
2022-08-24T13:28:09.991Z,5.18
2022-08-24T13:31:17.635Z,4.93
2022-08-24T13:33:51.916Z,5.40
2022-08-24T13:39:59.187Z,5.28
2022-08-24T13:43:16.335Z,5.30
2022-08-24T13:45:52.742Z,5.40
2022-08-24T13:48:41.425Z,5.45
2022-08-24T13:51:37.169Z,5.68
2022-08-24T13:54:25.213Z,4.78
2022-08-24T13:57:27.340Z,5.30
2022-08-24T14:00:39.529Z,4.93
2022-08-24T14:03:26.790Z,5.90
2022-08-24T14:06:02.680Z,4.97
2022-08-24T14:08:49.092Z,5.40
2022-08-24T14:11:38.379Z,5.82
2022-08-24T14:14:19.791Z,9.98
2022-08-24T14:17:35.442Z,5.95
2022-08-24T14:20:14.532Z,5.38
2022-08-24T14:23:04.231Z,5.55
2022-08-24T14:25:37.634Z,5.35
2022-08-24T14:28:36.144Z,5.00
2022-08-24T14:31:28.320Z,5.10
2022-08-24T14:34:19.147Z,4.95
2022-08-24T14:37:01.087Z,4.93
2022-08-24T14:39:42.301Z,5.50
2022-08-24T14:42:21.383Z,5.30
2022-08-24T14:45:06.872Z,5.03
2022-08-24T14:48:02.009Z,4.55
2022-08-24T14:50:43.501Z,4.88
2022-08-24T14:53:45.373Z,4.82
2022-08-24T14:56:25.387Z,5.00
2022-08-24T14:59:08.440Z,4.60
2022-08-24T15:01:44.918Z,5.22
2022-08-24T15:04:43.247Z,4.40
2022-08-24T15:07:32.655Z,4.30
2022-08-24T15:10:05.860Z,4.45
2022-08-24T15:12:42.753Z,4.50
2022-08-24T15:15:21.196Z,4.18
2022-08-24T15:18:06.874Z,4.45
2022-08-24T15:21:06.339Z,4.60
2022-08-24T15:24:09.892Z,4.10
2022-08-24T15:27:01.477Z,4.40
2022-08-24T15:29:34.988Z,4.20
2022-08-24T15:32:11.633Z,4.60
2022-08-24T15:34:48.889Z,4.68
2022-08-24T15:37:29.314Z,4.38
2022-08-24T15:40:04.693Z,4.93
2022-08-24T15:42:38.990Z,4.60
2022-08-24T15:47:43.164Z,4.25
2022-08-24T15:50:26.772Z,4.90
2022-08-24T15:53:01.915Z,4.90
2022-08-24T15:55:42.036Z,4.90
2022-08-24T15:58:35.753Z,4.88
2022-08-24T16:01:42.773Z,4.57
2022-08-24T16:04:43.483Z,4.70
2022-08-24T16:07:20.021Z,4.60
2022-08-24T16:09:50.635Z,4.70
2022-08-24T16:12:32.402Z,4.53
2022-08-24T16:15:17.284Z,4.60
2022-08-24T16:20:36.256Z,4.60
2022-08-24T16:23:10.939Z,4.25
2022-08-24T16:25:44.698Z,5.13
2022-08-24T16:28:37.936Z,4.88
2022-08-24T16:31:09.735Z,4.80
2022-08-24T16:33:45.893Z,5.15
2022-08-24T16:36:20.204Z,4.75
2022-08-24T16:41:25.823Z,4.80
2022-08-24T16:43:58.749Z,4.88
2022-08-24T16:46:29.005Z,5.05
2022-08-24T16:48:59.306Z,5.20
2022-08-24T16:51:29.677Z,4.70
2022-08-24T16:54:00.646Z,4.70
2022-08-24T16:56:31.531Z,4.50
2022-08-24T16:59:04.655Z,5.18
2022-08-24T17:01:34.987Z,5.05
2022-08-24T17:04:05.552Z,5.13
2022-08-24T17:06:35.865Z,4.45
2022-08-24T17:09:06.680Z,4.68
2022-08-24T17:11:39.505Z,4.47
2022-08-24T17:14:13.235Z,4.55
2022-08-24T17:16:43.864Z,4.95
2022-08-24T17:19:17.533Z,5.00
2022-08-24T17:21:48.472Z,4.88
2022-08-24T17:24:23.038Z,4.45
2022-08-24T17:26:53.929Z,4.60
2022-08-24T17:29:27.645Z,4.95
2022-08-24T17:31:59.220Z,4.45
2022-08-24T17:34:30.445Z,4.78
2022-08-24T17:37:01.961Z,4.97
2022-08-24T17:39:32.260Z,4.65
2022-08-24T17:42:03.748Z,4.78
2022-08-24T17:44:37.108Z,4.38
2022-08-24T17:47:08.748Z,4.50
2022-08-24T17:49:39.450Z,5.03
2022-08-24T17:52:10.090Z,4.53
2022-08-24T17:54:40.408Z,4.63
2022-08-24T17:57:10.909Z,5.05
2022-08-24T17:59:44.770Z,4.95
2022-08-24T18:02:16.395Z,4.43
2022-08-24T18:04:46.716Z,4.63
2022-08-24T18:07:42.311Z,4.45
2022-08-24T18:10:16.975Z,4.47
2022-08-24T18:12:47.216Z,4.78
2022-08-24T18:15:20.484Z,4.75
2022-08-24T18:17:54.445Z,5.28
2022-08-24T18:20:29.909Z,5.10
2022-08-24T18:23:00.174Z,4.32
2022-08-24T18:25:31.691Z,4.40
2022-08-24T18:28:02.796Z,4.72
2022-08-24T18:30:37.083Z,4.65
2022-08-24T18:33:08.550Z,5.32
2022-08-24T18:35:38.852Z,5.05
2022-08-24T18:38:09.053Z,5.10
2022-08-24T18:40:39.413Z,4.70
2022-08-24T18:43:09.996Z,5.03
2022-08-24T18:45:42.996Z,4.82
2022-08-24T18:48:13.408Z,5.40
2022-08-24T18:50:43.834Z,4.82
2022-08-24T18:53:14.298Z,4.55
2022-08-24T18:55:47.304Z,4.93
2022-08-24T18:58:17.562Z,5.22
2022-08-24T19:00:52.473Z,5.35
2022-08-24T19:03:26.984Z,5.60
2022-08-24T19:05:57.840Z,5.60
2022-08-24T19:08:28.157Z,4.80
2022-08-24T19:10:59.291Z,4.85
2022-08-24T19:13:29.908Z,5.18
2022-08-24T19:16:04.195Z,4.88
2022-08-24T19:18:34.858Z,4.57
2022-08-24T19:21:05.198Z,5.32
2022-08-24T19:23:39.216Z,5.15
2022-08-24T19:26:09.916Z,5.15
2022-08-24T19:28:40.311Z,5.35
2022-08-24T19:31:16.388Z,4.90
2022-08-24T19:33:49.785Z,4.63
2022-08-24T19:36:22.038Z,4.80
2022-08-24T19:38:52.306Z,4.95
2022-08-24T19:41:22.649Z,5.22
2022-08-24T19:44:27.634Z,4.93
2022-08-24T19:47:01.429Z,5.07
2022-08-24T19:49:33.293Z,5.07
2022-08-24T19:52:04.165Z,5.05
2022-08-24T19:54:39.672Z,5.18
2022-08-24T19:57:37.652Z,5.13
2022-08-24T20:00:29.215Z,4.80
2022-08-24T20:03:03.344Z,4.85
2022-08-24T20:05:33.884Z,4.90
2022-08-24T20:08:05.738Z,5.40
2022-08-24T20:10:37.156Z,5.28
2022-08-24T20:13:07.516Z,5.70
2022-08-24T20:15:38.256Z,5.20
2022-08-24T20:18:11.611Z,5.45
2022-08-24T20:20:41.908Z,4.47
2022-08-24T20:23:12.403Z,4.95
2022-08-24T20:25:43.356Z,5.10
2022-08-24T20:28:37.867Z,5.25
2022-08-24T20:31:09.484Z,5.72
2022-08-24T20:33:42.614Z,5.30
2022-08-24T20:36:24.415Z,4.85
2022-08-24T20:38:55.338Z,5.63
2022-08-24T20:41:27.528Z,5.68
2022-08-24T20:43:57.947Z,5.30
2022-08-24T20:46:29.375Z,6.43
2022-08-24T20:49:02.965Z,5.10
2022-08-24T20:51:33.480Z,5.13
2022-08-24T20:54:06.303Z,5.03
2022-08-24T20:56:40.455Z,5.65
2022-08-24T20:59:13.292Z,5.43
2022-08-24T21:01:46.010Z,5.65
2022-08-24T21:04:18.918Z,5.40
2022-08-24T21:06:50.795Z,5.30
2022-08-24T21:09:21.792Z,5.18
2022-08-24T21:11:52.218Z,5.60
2022-08-24T21:14:22.850Z,5.40
2022-08-24T21:16:53.011Z,5.35
2022-08-24T21:19:26.064Z,5.20
2022-08-24T21:21:56.213Z,5.32
2022-08-24T21:24:27.865Z,4.97
2022-08-24T21:26:58.387Z,5.43
2022-08-24T21:29:33.395Z,5.22
2022-08-24T21:32:16.004Z,5.72
2022-08-24T21:34:48.844Z,5.10
2022-08-24T21:37:21.858Z,4.97
2022-08-24T21:39:52.218Z,5.43
2022-08-24T21:42:23.212Z,4.82
2022-08-24T21:44:53.426Z,4.78
2022-08-24T21:47:23.701Z,5.32
2022-08-24T21:49:56.649Z,5.25
2022-08-24T21:52:26.951Z,5.05
2022-08-24T21:54:57.525Z,5.47
2022-08-24T21:57:27.998Z,5.13
2022-08-24T21:59:58.210Z,5.10
2022-08-24T22:02:29.730Z,4.78
2022-08-24T22:05:02.720Z,5.07
2022-08-24T22:07:33.069Z,5.80
2022-08-24T22:10:03.627Z,4.72
2022-08-24T22:12:36.322Z,5.00
2022-08-24T22:15:11.362Z,5.40
2022-08-24T22:17:42.128Z,5.47
2022-08-24T22:20:23.067Z,5.53
2022-08-24T22:22:54.387Z,5.28
2022-08-24T22:25:24.731Z,5.10
2022-08-24T22:27:55.142Z,4.90
2022-08-24T22:30:25.848Z,5.05
2022-08-24T22:32:56.068Z,5.00
2022-08-24T22:35:29.168Z,4.97
2022-08-24T22:38:02.121Z,5.07
2022-08-24T22:40:33.910Z,5.07
2022-08-24T22:43:05.287Z,4.72
2022-08-24T22:45:35.739Z,5.22
2022-08-24T22:48:09.138Z,5.15
2022-08-24T22:50:46.537Z,4.97
2022-08-24T22:53:17.064Z,5.07
2022-08-24T22:55:47.253Z,4.95
2022-08-24T22:58:17.486Z,4.57
2022-08-24T23:00:47.691Z,5.10
2022-08-24T23:03:17.986Z,5.32
2022-08-24T23:05:51.970Z,5.35
2022-08-24T23:08:22.250Z,5.00
2022-08-24T23:10:53.181Z,5.85
2022-08-24T23:13:28.788Z,5.10
2022-08-24T23:15:59.116Z,5.05
2022-08-24T23:18:42.080Z,5.60
2022-08-24T23:21:18.322Z,5.32
2022-08-24T23:23:50.155Z,5.07
2022-08-24T23:26:21.313Z,5.38
2022-08-24T23:28:53.490Z,5.32
2022-08-24T23:31:25.026Z,5.20
2022-08-24T23:33:55.166Z,6.18
2022-08-24T23:36:30.176Z,5.82
2022-08-24T23:39:01.968Z,5.88
2022-08-24T23:41:35.043Z,5.72
2022-08-24T23:44:09.650Z,6.10
2022-08-24T23:46:41.491Z,6.88
2022-08-24T23:49:12.980Z,6.07
2022-08-24T23:51:46.508Z,5.78
2022-08-24T23:54:17.561Z,5.47
2022-08-24T23:56:50.408Z,5.97
2022-08-24T23:59:25.805Z,5.82
